Home > Products > Valid Products > MTR

000
SAZS31 NSTU 240453
MTRPPG
METAR NSTU 240452Z VRB04KT 12SM FEW017 FEW100 SCT200 28/25 A2986 RMK
SLP112 T02750248=




000
SAZS31 NSTU 240351
MTRPPG
METAR NSTU 240350Z VRB06KT 12SM FEW019 SCT100 SCT200 28/25 A2984 RMK
SLP105 T02810253=




000
SAZS31 NSTU 240252
MTRPPG
METAR NSTU 240251Z 27009KT 12SM FEW016 SCT100 BKN230 28/25 A2984 RMK
SLP105 8/171 T02820251 57020=




000
SAZS31 NSTU 240157
MTRPPG
METAR NSTU 240155Z 28006KT 12SM SCT035 SCT100 BKN230 29/24 A2985 RMK
 SLP110 T02870237=




000
SAZS31 NSTU 240051
MTRPPG
METAR NSTU 240050Z 00000KT 12SM SCT015CB SCT040 BKN110 27/25 A2987
RMK CB N-NE-SE SLP115 T02740253=




000
SAZS31 NSTU 232355
MTRPPG
METAR NSTU 232351Z 00000KT 12SM SCT017 BKN040 OVC110 28/25 A2990 RMK
SLP125 60006 8/87/ T02800251 10287 20266 56015=




000
SAZS31 NSTU 232336
MTRPPG
METAR NSTU 232152Z VRB05KT 7SM SCT017TCU BKN040 OVC110 27/25 A2993
RMK TCU ALQDS SLP137 T02690254=




000
SAZS31 NSTU 231854
MTRPPG
METAR NSTU 231850Z VRB03KT 12SM FEW015CB SCT045 SCT230 28/25 A2990
RMK CB DSNT SW SLP127 T02780253=




000
SAZS31 NSTU 231755
MTRPPG
METAR NSTU 231750Z VRB03KT 12SM FEW015 SCT045 SCT110 27/25 A2987 RMK
SLP117 8/870 T02660250 10266 20255 52005=




000
SAZS31 NSTU 231700
MTRPPG
METAR NSTU 231651Z VRB02KT 10SM FEW019 BKN100 BKN200 26/25 A2988
RMK SLP119 T02580248=





000
SAZS31 NSTU 231449
MTRPPG
METAR NSTU 231450Z 00000KT 10SM FEW021 BKN040 OVC100 26/25 A2986 RMK
SLP112 8/47/ T02550248 57014=




000
SAZS31 NSTU 231255
MTRPPG
METAR NSTU 231255Z 00000KT 10SM FEW021 BKN040 OVC100 26/25 A2988 RMK
SLP120 T02610254=




000
SAZS31 NSTU 231157
MTRPPG
METAR NSTU 231155Z VRB03KT 10SM FEW019 SCT040 BKN100 26/25 A2990 RMK
SHRAE10 SLP125 60003 70007 8/470 T02590253 10275 20259 57003=




000
SAZS31 NSTU 230950
MTRPPG
METAR NSTU 230950Z 00000KT 10SM -SHRA SCT019TCU BKN040 OVC100 26/26
A2991 RMK SHRAB11 TCU ALQDS SLP130 T02640256=




000
SAZS31 NSTU 230654
MTRPPG
METAR NSTU 230651Z 00000KT 10SM FEW023 SCT040 BKN120 BKN200 27/26
A2988 RMK SLP120 T02710255=




000
SAZS31 NSTU 230554
MTRPPG
METAR NSTU 230550Z 00000KT 10SM FEW023 SCT040 BKN120 28/25 A2988 RMK
SLP119 8/470 T02750254 10315 20275 52015=




000
SAZS31 NSTU 230314
MTRPPG
METAR NSTU 230252Z VRB04KT 12SM FEW018 SCT040 BKN120 OVC200 29/26
A2983 RMK SLP103 8/871 T02920257 56005=




000
SAZS31 NSTU 230154
MTRPPG
METAR NSTU 230150Z 30007KT 12SM VCSH SCT019TCU BKN040 BKN090 31/26
A2982 RMK VCSH SE TCU ALQDS SLP100 T03080260=




000
SAZS31 NSTU 230050
MTRPPG
METAR NSTU 230050Z VRB05KT 12SM SCT020TCU SCT130 BKN230 31/26 A2983
RMK TCU OHD SLP102 T03140260=




000
SAZS31 NSTU 222351
MTRPPG
METAR NSTU 222350Z VRB05KT 12SM FEW015CB SCT130 BKN230 32/26 A2985
RMK CB DSNT E-SE-S SLP108 8/371 T03150258 10315 20277 57007=




000
SAZS31 NSTU 221950
MTRPPG
METAR NSTU 221950Z 33002KT 12SM SCT018 BKN240 29/26 A2986 RMK SLP112
 T02940259=




000
SAZS31 NSTU 221851
MTRPPG
METAR NSTU 221850Z 36008KT 12SM SCT018 SCT040 BKN100 BKN180 28/25
A2984 RMK SLP105 T02830252=




000
SAZS31 NSTU 221755
MTRPPG
METAR NSTU 221753Z 36007KT 12SM FEW018 SCT040 BKN100 BKN180 28/25
A2983 RMK SLP102 60004 8/478 T02770248 10277 20263 52007=




000
SAZS31 NSTU 221614
MTRPPG
METAR NSTU 221555Z 00000KT 10SM FEW018 BKN040 BKN080 28/25
A2981 RMK SLP095 T02750251=




000
SAZS31 NSTU 221506
MTRPPG
METAR NSTU 221455Z VRB03KT 10SM -SHRA SCT018TCU BKN040 OVC080 27/25
A2981 RMK SHRAB01 TCU W-N-NE SLP095 60004 8/12/ T02700251 57012=




000
SAZS31 NSTU 221259
MTRPPG
METAR NSTU 221254Z VRB02KT 10SM -SHRA SCT016TCU BKN040 OVC080 26/25
A2983 RMK SHRAB35 TCU W-N-NE SLP103 T02640251=




000
SAZS31 NSTU 221153
MTRPPG
METAR NSTU 221151Z 00000KT 10SM FEW018 SCT040 BKN100 26/25 A2984 RMK
SLP107 70249 8/870 T02630251 10269 20261 57008=




000
SAZS31 NSTU 220752
MTRPPG
METAR NSTU 220751Z VRB02KT 10SM FEW023 BKN120 OVC200 27/25 A2987 RMK
SLP115 T02690251=




000
SAZS31 NSTU 220654
MTRPPG
METAR NSTU 220653Z 00000KT 10SM FEW023 SCT120 BKN200 26/25 A2986 RMK
SLP110 T02610246=




000
SAZS31 NSTU 220452
MTRPPG
METAR NSTU 220451Z VRB02KT 12SM FEW016 SCT120 BKN200 28/24 A2982 RMK
SLP098 T02770243=




000
SAZS31 NSTU 220352
MTRPPG
METAR NSTU 220351Z VRB03KT 12SM FEW016 FEW120 BKN200 BKN250 28/24
A2981 RMK SLP095 T02820242=




000
SAZS31 NSTU 220253
MTRPPG
METAR NSTU 220251Z VRB02KT 12SM FEW016 SCT120 BKN200 BKN250 28/25
A2979 RMK SLP090 60000 8/179 T02830246 57017=




000
SAZS31 NSTU 220106
MTRPPG
METAR NSTU 220051Z 08008KT 12SM FEW008 FEW018 SCT040 OVC100 28/26
A2982 RMK SHRAE20 SLP098 T02750263=




000
SAZS31 NSTU 220007
MTRPPG
METAR NSTU 212350Z VRB03KT 7SM -SHRA FEW008 SCT014 BKN038 OVC080
26/26 A2984 RMK SLP107 60156 8/82/ T02640258 10267 20253 56020=




000
SAZS31 NSTU 212250
MTRPPG
METAR NSTU 212250Z 00000KT 5SM -SHRA SCT008 BKN014 OVC038 26/25
A2988 RMK SLP117 T02590252=




000
SAZS31 NSTU 211851
MTRPPG
METAR NSTU 211850Z VRB03KT 12SM FEW008 SCT017 BKN040 OVC100 26/25
A2986 RMK SHRAE30 SLP112 T02580252=




000
SAZS31 NSTU 211551
MTRPPG
METAR NSTU 211550Z 06008G15KT 3SM +SHRA FEW006 BKN014TCU OVC035
26/25 A2983 RMK SHRAB25 TCU ALQDS SLP103 T02600251=




000
SAZS31 NSTU 211457
MTRPPG
METAR NSTU 211454Z 09015G21KT 8SM SHRA FEW006 BKN016TCU OVC038 27/26
A2982 RMK SHRAB45 TCU ALQDS SLP100 60036 8/4// T02670257 57019=




000
SAZS31 NSTU 211154
MTRPPG
METAR NSTU 211151Z 12010KT 10SM FEW018 BKN040 OVC080 28/25 A2988 RMK
SLP119 8/52/ T02760251 10277 20274 56007=




000
SAZS31 NSTU 211153
MTRPPG
METAR NSTU 211053Z 10008KT 10SM FEW020 SCT040 BKN100 27/25 A2988 RMK
SLP120 T02740248 402930271=




000
SAZS31 NSTU 210751
MTRPPG
METAR NSTU 210751Z 12013KT 10SM SCT019 BKN040 OVC100 28/25 A2989 RMK
SLP124 T02770245=




    US Dept of Commerce
    National Oceanic and Atmospheric Administration
    National Weather Service
    1325 East West Highway
    Silver Spring, MD 20910
    Page Author: NWS Internet Services Team
Disclaimer
Information Quality
Credits
Glossary
Privacy Policy
Freedom of Information Act (FOIA)
About Us
Career Opportunities